createdAt,value
2023-03-05T00:01:25.581Z,50.45
2023-03-05T00:03:54.735Z,50.40
2023-03-05T00:06:23.392Z,50.61
2023-03-05T00:08:52.124Z,50.43
2023-03-05T00:11:20.309Z,50.72
2023-03-05T00:13:47.660Z,50.79
2023-03-05T00:16:17.840Z,50.82
2023-03-05T00:18:45.480Z,50.63
2023-03-05T00:21:24.834Z,50.57
2023-03-05T00:23:53.001Z,50.96
2023-03-05T00:26:22.270Z,50.77
2023-03-05T00:28:50.586Z,51.02
2023-03-05T00:31:23.763Z,50.96
2023-03-05T00:33:54.994Z,51.09
2023-03-05T00:36:22.207Z,50.88
2023-03-05T00:38:49.252Z,50.76
2023-03-05T00:41:16.173Z,51.11
2023-03-05T00:43:43.463Z,51.18
2023-03-05T00:46:10.605Z,51.22
2023-03-05T00:48:37.556Z,51.25
2023-03-05T00:51:04.701Z,51.30
2023-03-05T00:53:31.659Z,51.06
2023-03-05T00:55:59.152Z,51.41
2023-03-05T00:58:26.214Z,51.24
2023-03-05T01:00:53.142Z,51.30
2023-03-05T01:03:20.147Z,51.32
2023-03-05T01:05:47.177Z,51.58
2023-03-05T01:08:14.059Z,51.68
2023-03-05T01:10:40.954Z,51.48
2023-03-05T01:13:07.855Z,51.75
2023-03-05T01:15:35.055Z,51.71
2023-03-05T01:18:01.931Z,51.58
2023-03-05T01:20:29.026Z,51.62
2023-03-05T01:22:55.994Z,51.59
2023-03-05T01:25:22.881Z,51.71
2023-03-05T01:27:49.813Z,51.60
2023-03-05T01:30:16.810Z,51.98
2023-03-05T01:32:43.732Z,51.75
2023-03-05T01:35:18.959Z,51.69
2023-03-05T01:37:45.863Z,51.72
2023-03-05T01:40:14.869Z,51.77
2023-03-05T01:42:49.264Z,52.04
2023-03-05T01:45:18.570Z,51.75
2023-03-05T01:47:45.913Z,51.95
2023-03-05T01:50:16.684Z,51.97
2023-03-05T01:52:50.156Z,51.81
2023-03-05T01:55:19.775Z,52.07
2023-03-05T01:57:51.964Z,51.85
2023-03-05T02:00:32.083Z,52.00
2023-03-05T02:03:03.360Z,52.00
2023-03-05T02:05:34.776Z,51.77
2023-03-05T02:08:03.097Z,51.92
2023-03-05T02:10:36.582Z,52.02
2023-03-05T02:13:06.872Z,51.79
2023-03-05T02:15:34.326Z,51.97
2023-03-05T02:18:03.916Z,51.96
2023-03-05T02:20:43.768Z,52.02
2023-03-05T02:23:10.595Z,52.15
2023-03-05T02:25:37.411Z,52.16
2023-03-05T02:28:15.379Z,51.97
2023-03-05T02:30:42.647Z,52.31
2023-03-05T02:33:09.590Z,52.27
2023-03-05T02:35:36.813Z,52.07
2023-03-05T02:38:03.996Z,51.92
2023-03-05T02:40:30.859Z,52.28
2023-03-05T02:42:57.767Z,52.29
2023-03-05T02:45:24.625Z,52.17
2023-03-05T02:47:51.473Z,52.09
2023-03-05T02:50:18.506Z,51.99
2023-03-05T02:52:45.441Z,52.23
2023-03-05T02:55:12.241Z,52.12
2023-03-05T02:57:39.252Z,52.27
2023-03-05T03:00:07.158Z,52.23
2023-03-05T03:02:34.195Z,52.33
2023-03-05T03:05:01.070Z,52.25
2023-03-05T03:07:27.959Z,52.31
2023-03-05T03:09:54.748Z,52.25
2023-03-05T03:12:22.750Z,52.22
2023-03-05T03:14:49.559Z,52.08
2023-03-05T03:17:18.390Z,52.15
2023-03-05T03:19:46.716Z,52.14
2023-03-05T03:22:16.383Z,52.42
2023-03-05T03:24:44.280Z,52.13
2023-03-05T03:27:11.240Z,52.32
2023-03-05T03:29:38.211Z,52.16
2023-03-05T03:32:05.482Z,52.38
2023-03-05T03:34:32.368Z,52.24
2023-03-05T03:36:59.146Z,52.33
2023-03-05T03:39:26.022Z,52.22
2023-03-05T03:41:54.048Z,52.12
2023-03-05T03:44:22.311Z,52.14
2023-03-05T03:46:50.546Z,52.24
2023-03-05T03:49:20.423Z,52.30
2023-03-05T03:51:48.319Z,52.20
2023-03-05T03:54:16.612Z,52.42
2023-03-05T03:56:43.499Z,52.17
2023-03-05T03:59:10.518Z,52.19
2023-03-05T04:01:37.864Z,52.21
2023-03-05T04:04:05.268Z,52.13
2023-03-05T04:06:32.655Z,52.26
2023-03-05T04:08:59.569Z,52.34
2023-03-05T04:11:26.437Z,52.09
2023-03-05T04:13:53.320Z,52.07
2023-03-05T04:16:20.185Z,52.25
2023-03-05T04:18:47.448Z,52.24
2023-03-05T04:21:14.437Z,51.78
2023-03-05T04:23:41.583Z,52.00
2023-03-05T04:26:08.423Z,52.14
2023-03-05T04:28:35.389Z,52.17
2023-03-05T04:31:02.771Z,52.04
2023-03-05T04:33:29.712Z,52.00
2023-03-05T04:35:56.892Z,52.41
2023-03-05T04:38:23.820Z,52.26
2023-03-05T04:40:50.618Z,52.06
2023-03-05T04:43:17.496Z,52.12
2023-03-05T04:45:44.957Z,52.20
2023-03-05T04:48:12.735Z,51.91
2023-03-05T04:50:40.058Z,52.32
2023-03-05T04:53:07.071Z,52.01
2023-03-05T04:55:34.209Z,52.18
2023-03-05T04:58:01.105Z,51.78
2023-03-05T05:00:27.971Z,52.07
2023-03-05T05:02:54.859Z,52.13
2023-03-05T05:05:24.885Z,51.92
2023-03-05T05:07:56.563Z,52.08
2023-03-05T05:10:24.147Z,51.69
2023-03-05T05:12:50.994Z,51.79
2023-03-05T05:15:18.058Z,52.11
2023-03-05T05:17:45.085Z,51.82
2023-03-05T05:20:14.715Z,52.14
2023-03-05T05:22:41.788Z,51.94
2023-03-05T05:25:10.700Z,51.91
2023-03-05T05:27:39.221Z,51.84
2023-03-05T05:30:06.659Z,51.71
2023-03-05T05:32:33.649Z,51.97
2023-03-05T05:35:00.816Z,51.77
2023-03-05T05:37:27.970Z,51.58
2023-03-05T05:39:55.152Z,51.65
2023-03-05T05:42:24.653Z,51.69
2023-03-05T05:44:51.443Z,51.61
2023-03-05T05:47:19.228Z,51.84
2023-03-05T05:49:46.152Z,51.75
2023-03-05T05:52:13.566Z,51.81
2023-03-05T05:54:40.383Z,51.57
2023-03-05T05:57:07.440Z,51.82
2023-03-05T05:59:34.472Z,51.70
2023-03-05T06:02:01.419Z,51.77
2023-03-05T06:04:28.264Z,51.76
2023-03-05T06:06:55.095Z,51.89
2023-03-05T06:09:22.018Z,51.60
2023-03-05T06:11:48.940Z,51.73
2023-03-05T06:14:15.715Z,51.45
2023-03-05T06:16:42.732Z,51.75
2023-03-05T06:19:16.099Z,51.73
2023-03-05T06:21:46.247Z,51.60
2023-03-05T06:24:13.209Z,51.59
2023-03-05T06:26:40.458Z,51.53
2023-03-05T06:29:07.441Z,51.59
2023-03-05T06:31:36.915Z,51.78
2023-03-05T06:34:04.122Z,51.84
2023-03-05T06:36:31.631Z,51.80
2023-03-05T06:38:59.097Z,51.96
2023-03-05T06:41:28.698Z,51.91
2023-03-05T06:43:56.251Z,51.93
2023-03-05T06:46:32.112Z,51.90
2023-03-05T06:49:01.371Z,51.71
2023-03-05T06:51:36.132Z,51.83
2023-03-05T06:54:09.419Z,51.60
2023-03-05T06:56:37.608Z,51.64
2023-03-05T06:59:05.090Z,49.24
2023-03-05T07:01:31.983Z,50.09
2023-03-05T07:04:00.742Z,50.45
2023-03-05T07:06:28.022Z,51.07
2023-03-05T07:08:56.531Z,51.06
2023-03-05T07:11:24.121Z,51.09
2023-03-05T07:13:51.888Z,50.84
2023-03-05T07:16:22.067Z,51.62
2023-03-05T07:18:49.874Z,51.68
2023-03-05T07:21:20.455Z,51.63
2023-03-05T07:23:47.668Z,51.59
2023-03-05T07:26:15.644Z,51.66
2023-03-05T07:28:42.774Z,51.92
2023-03-05T07:31:14.838Z,51.64
2023-03-05T07:33:41.954Z,51.98
2023-03-05T07:36:09.812Z,51.76
2023-03-05T07:38:37.852Z,51.61
2023-03-05T07:41:06.610Z,51.75
2023-03-05T07:43:33.974Z,51.50
2023-03-05T07:46:04.860Z,51.60
2023-03-05T07:48:31.802Z,51.21
2023-03-05T07:51:03.796Z,51.78
2023-03-05T07:53:30.970Z,51.67
2023-03-05T07:55:57.990Z,51.35
2023-03-05T07:58:25.431Z,51.59
2023-03-05T08:00:52.650Z,51.44
2023-03-05T08:03:19.556Z,51.39
2023-03-05T08:05:47.009Z,51.50
2023-03-05T08:08:14.214Z,51.43
2023-03-05T08:10:41.216Z,51.76
2023-03-05T08:13:08.920Z,51.96
2023-03-05T08:15:37.963Z,51.98
2023-03-05T08:18:05.433Z,52.17
2023-03-05T08:20:36.367Z,52.04
2023-03-05T08:23:04.133Z,51.74
2023-03-05T08:25:31.935Z,52.17
2023-03-05T08:27:59.120Z,51.87
2023-03-05T08:30:27.808Z,52.36
2023-03-05T08:32:56.180Z,52.59
2023-03-05T08:35:23.738Z,53.12
2023-03-05T08:37:50.860Z,53.96
2023-03-05T08:40:18.457Z,53.51
2023-03-05T08:42:45.896Z,54.55
2023-03-05T08:45:13.554Z,55.50
2023-03-05T08:47:40.782Z,55.54
2023-03-05T08:50:08.500Z,54.81
2023-03-05T08:52:36.555Z,54.31
2023-03-05T08:55:03.866Z,54.05
2023-03-05T08:57:31.038Z,53.96
2023-03-05T08:59:58.122Z,54.05
2023-03-05T09:02:25.221Z,53.81
2023-03-05T09:04:52.322Z,53.83
2023-03-05T09:07:19.394Z,53.96
2023-03-05T09:09:47.099Z,53.84
2023-03-05T09:12:16.503Z,53.65
2023-03-05T09:14:44.743Z,53.25
2023-03-05T09:17:11.840Z,53.62
2023-03-05T09:19:40.948Z,53.34
2023-03-05T09:22:09.574Z,53.16
2023-03-05T09:24:36.788Z,53.01
2023-03-05T09:27:04.082Z,52.29
2023-03-05T09:29:31.673Z,53.10
2023-03-05T09:31:59.183Z,53.49
2023-03-05T09:34:26.399Z,53.64
2023-03-05T09:36:53.332Z,53.87
2023-03-05T09:39:20.505Z,53.96
2023-03-05T09:42:16.878Z,53.77
2023-03-05T09:45:16.774Z,53.87
2023-03-05T09:48:10.975Z,53.80
2023-03-05T09:51:03.564Z,53.71
2023-03-05T09:54:11.424Z,53.82
2023-03-05T09:56:43.325Z,53.79
2023-03-05T09:59:22.314Z,52.16
2023-03-05T10:01:51.150Z,52.38
2023-03-05T10:04:46.082Z,52.84
2023-03-05T10:07:19.602Z,52.96
2023-03-05T10:09:52.528Z,51.65
2023-03-05T10:12:45.880Z,52.02
2023-03-05T10:15:14.523Z,52.13
2023-03-05T10:18:14.583Z,50.82
2023-03-05T10:21:10.550Z,51.84
2023-03-05T10:23:59.460Z,53.16
2023-03-05T10:27:04.659Z,51.75
2023-03-05T10:29:47.286Z,51.66
2023-03-05T10:32:35.552Z,52.05
2023-03-05T10:35:44.687Z,47.85
2023-03-05T10:38:20.775Z,47.23
2023-03-05T10:40:52.650Z,46.97
2023-03-05T10:43:38.837Z,47.86
2023-03-05T10:46:05.846Z,50.35
2023-03-05T10:49:14.343Z,50.52
2023-03-05T10:51:49.352Z,50.67
2023-03-05T10:54:25.626Z,50.88
2023-03-05T10:57:26.140Z,51.01
2023-03-05T11:00:19.964Z,50.99
2023-03-05T11:03:10.715Z,51.21
2023-03-05T11:05:44.360Z,51.26
2023-03-05T11:08:37.837Z,51.42
2023-03-05T11:11:19.818Z,51.66
2023-03-05T11:14:04.038Z,51.65
2023-03-05T11:16:34.524Z,51.58
2023-03-05T11:19:20.382Z,51.55
2023-03-05T11:22:16.168Z,51.53
2023-03-05T11:24:47.049Z,51.55
2023-03-05T11:27:38.537Z,51.83
2023-03-05T11:30:20.674Z,51.53
2023-03-05T11:32:47.960Z,51.66
2023-03-05T11:35:35.759Z,51.76
2023-03-05T11:38:05.517Z,51.61
2023-03-05T11:40:36.092Z,51.83
2023-03-05T11:43:05.318Z,51.81
2023-03-05T11:45:34.326Z,52.04
2023-03-05T11:48:06.524Z,51.70
2023-03-05T11:50:35.806Z,51.89
2023-03-05T11:53:12.123Z,51.90
2023-03-05T11:56:00.734Z,52.10
2023-03-05T11:58:36.585Z,52.14
2023-03-05T12:01:07.368Z,51.96
2023-03-05T12:03:38.576Z,51.93
2023-03-05T12:06:11.106Z,51.86
2023-03-05T12:08:42.900Z,51.96
2023-03-05T12:11:27.279Z,51.87
2023-03-05T12:14:05.109Z,51.73
2023-03-05T12:16:45.202Z,52.00
2023-03-05T12:19:23.935Z,51.72
2023-03-05T12:21:53.065Z,52.07
2023-03-05T12:24:28.107Z,51.94
2023-03-05T12:26:59.694Z,51.86
2023-03-05T12:29:28.264Z,51.72
2023-03-05T12:31:55.254Z,51.97
2023-03-05T12:34:40.598Z,52.00
2023-03-05T12:37:34.775Z,52.05
2023-03-05T12:40:09.008Z,52.32
2023-03-05T12:43:04.633Z,52.15
2023-03-05T12:45:34.652Z,52.22
2023-03-05T12:48:01.447Z,52.43
2023-03-05T12:50:28.383Z,52.41
2023-03-05T12:53:05.023Z,52.05
2023-03-05T12:55:37.216Z,49.47
2023-03-05T12:58:12.766Z,48.90
2023-03-05T13:00:45.594Z,48.10
2023-03-05T13:03:19.115Z,47.45
2023-03-05T13:05:54.853Z,46.98
2023-03-05T13:08:26.179Z,46.56
2023-03-05T13:11:00.765Z,46.23
2023-03-05T13:13:30.112Z,46.19
2023-03-05T13:15:58.226Z,46.16
2023-03-05T13:18:30.628Z,46.47
2023-03-05T13:21:05.587Z,46.08
2023-03-05T13:23:34.336Z,46.21
2023-03-05T13:26:18.939Z,47.14
2023-03-05T13:29:30.940Z,47.80
2023-03-05T13:32:01.902Z,48.73
2023-03-05T13:34:47.317Z,48.90
2023-03-05T13:37:43.874Z,49.20
2023-03-05T13:40:23.053Z,49.71
2023-03-05T13:42:50.359Z,50.09
2023-03-05T13:45:31.972Z,49.96
2023-03-05T13:48:00.337Z,50.12
2023-03-05T13:50:34.623Z,50.63
2023-03-05T13:53:28.269Z,50.77
2023-03-05T13:56:00.557Z,50.53
2023-03-05T13:58:49.417Z,50.53
2023-03-05T14:01:30.346Z,50.42
2023-03-05T14:04:04.329Z,50.40
2023-03-05T14:06:32.410Z,50.28
2023-03-05T14:09:22.152Z,50.29
2023-03-05T14:12:33.610Z,50.04
2023-03-05T14:15:02.600Z,49.87
2023-03-05T14:17:35.562Z,49.93
2023-03-05T14:20:19.987Z,49.83
2023-03-05T14:22:51.011Z,49.48
2023-03-05T14:25:35.595Z,49.24
2023-03-05T14:28:17.268Z,49.09
2023-03-05T14:30:48.961Z,49.19
2023-03-05T14:33:30.220Z,48.81
2023-03-05T14:39:32.232Z,49.69
2023-03-05T14:42:38.994Z,49.90
2023-03-05T14:45:18.336Z,50.11
2023-03-05T14:47:45.451Z,49.88
2023-03-05T14:50:30.978Z,50.03
2023-03-05T14:53:07.336Z,50.01
2023-03-05T14:55:35.860Z,49.85
2023-03-05T14:58:22.162Z,50.13
2023-03-05T15:00:51.282Z,50.17
2023-03-05T15:03:19.783Z,50.06
2023-03-05T15:05:49.210Z,49.69
2023-03-05T15:08:21.046Z,49.54
2023-03-05T15:10:48.328Z,49.87
2023-03-05T15:13:19.437Z,49.93
2023-03-05T15:15:47.458Z,49.79
2023-03-05T15:18:18.295Z,49.91
2023-03-05T15:20:46.728Z,50.20
2023-03-05T15:23:13.801Z,49.88
2023-03-05T15:25:44.126Z,49.85
2023-03-05T15:28:11.418Z,49.70
2023-03-05T15:30:45.530Z,50.07
2023-03-05T15:33:16.144Z,50.14
2023-03-05T15:35:44.369Z,51.07
2023-03-05T15:38:11.413Z,51.37
2023-03-05T15:40:38.456Z,50.92
2023-03-05T15:43:05.559Z,51.24
2023-03-05T15:45:32.683Z,51.14
2023-03-05T15:47:59.839Z,50.54
2023-03-05T15:50:26.888Z,50.85
2023-03-05T15:53:27.772Z,50.73
2023-03-05T15:55:54.763Z,51.10
2023-03-05T15:58:22.396Z,50.50
2023-03-05T16:00:49.681Z,50.71
2023-03-05T16:03:16.719Z,50.47
2023-03-05T16:05:44.058Z,50.76
2023-03-05T16:08:11.354Z,50.66
2023-03-05T16:10:39.952Z,50.75
2023-03-05T16:13:16.351Z,50.38
2023-03-05T16:15:44.256Z,50.37
2023-03-05T16:18:16.651Z,50.82
2023-03-05T16:20:44.067Z,50.61
2023-03-05T16:23:11.700Z,50.38
2023-03-05T16:25:39.000Z,50.13
2023-03-05T16:28:06.614Z,50.35
2023-03-05T16:30:33.791Z,50.27
2023-03-05T16:33:01.220Z,50.11
2023-03-05T16:35:29.341Z,50.25
2023-03-05T16:37:56.316Z,50.21
2023-03-05T16:40:23.635Z,49.78
2023-03-05T16:42:50.911Z,50.33
2023-03-05T16:45:18.215Z,50.47
2023-03-05T16:47:45.495Z,51.25
2023-03-05T16:50:12.762Z,50.89
2023-03-05T16:52:40.864Z,51.40
2023-03-05T16:55:08.716Z,50.23
2023-03-05T16:57:36.115Z,50.65
2023-03-05T17:00:05.136Z,49.78
2023-03-05T17:02:32.906Z,50.04
2023-03-05T17:05:00.250Z,49.80
2023-03-05T17:07:28.165Z,49.73
2023-03-05T17:09:56.266Z,49.59
2023-03-05T17:12:24.258Z,49.73
2023-03-05T17:14:51.896Z,49.61
2023-03-05T17:17:19.287Z,49.61
2023-03-05T17:19:46.236Z,49.90
2023-03-05T17:22:13.518Z,49.86
2023-03-05T17:24:43.232Z,49.56
2023-03-05T17:27:10.834Z,49.74
2023-03-05T17:29:37.865Z,49.50
2023-03-05T17:32:05.636Z,49.39
2023-03-05T17:34:36.497Z,49.57
2023-03-05T17:37:05.424Z,49.77
2023-03-05T17:39:35.418Z,49.75
2023-03-05T17:42:02.457Z,49.70
2023-03-05T17:44:29.553Z,50.01
2023-03-05T17:46:56.602Z,50.02
2023-03-05T17:49:23.681Z,50.01
2023-03-05T17:51:50.710Z,50.45
2023-03-05T17:54:17.536Z,50.40
2023-03-05T17:56:44.490Z,50.52
2023-03-05T17:59:11.574Z,49.49
2023-03-05T18:01:38.702Z,49.98
2023-03-05T18:04:05.875Z,50.21
2023-03-05T18:06:33.204Z,50.54
2023-03-05T18:09:00.211Z,50.02
2023-03-05T18:11:27.824Z,48.98
2023-03-05T18:13:54.748Z,49.76
2023-03-05T18:16:23.678Z,50.19
2023-03-05T18:18:50.916Z,49.95
2023-03-05T18:21:22.662Z,49.87
2023-03-05T18:23:51.453Z,49.82
2023-03-05T18:26:21.371Z,49.75
2023-03-05T18:28:48.469Z,50.07
2023-03-05T18:31:15.516Z,50.07
2023-03-05T18:33:43.253Z,49.97
2023-03-05T18:36:11.786Z,49.92
2023-03-05T18:38:38.812Z,50.15
2023-03-05T18:41:06.747Z,50.10
2023-03-05T18:43:34.149Z,50.03
2023-03-05T18:46:05.189Z,49.82
2023-03-05T18:48:32.142Z,49.63
2023-03-05T18:50:59.614Z,49.64
2023-03-05T18:53:28.078Z,49.41
2023-03-05T18:55:55.358Z,49.61
2023-03-05T18:58:23.092Z,49.65
2023-03-05T19:00:52.279Z,49.67
2023-03-05T19:03:21.806Z,50.12
2023-03-05T19:05:51.684Z,49.96
2023-03-05T19:08:19.248Z,49.94
2023-03-05T19:10:47.472Z,49.67
2023-03-05T19:13:25.662Z,50.15
2023-03-05T19:15:54.094Z,50.32
2023-03-05T19:18:23.737Z,50.40
2023-03-05T19:20:56.023Z,50.55
2023-03-05T19:23:23.761Z,50.50
2023-03-05T19:25:51.294Z,50.49
2023-03-05T19:28:18.722Z,50.55
2023-03-05T19:30:49.515Z,50.45
2023-03-05T19:33:17.458Z,50.49
2023-03-05T19:35:44.681Z,50.50
2023-03-05T19:38:13.177Z,50.20
2023-03-05T19:40:43.771Z,50.42
2023-03-05T19:43:11.142Z,50.52
2023-03-05T19:45:38.597Z,50.09
2023-03-05T19:48:08.109Z,50.04
2023-03-05T19:50:38.315Z,50.03
2023-03-05T19:53:06.945Z,49.77
2023-03-05T19:55:34.949Z,49.73
2023-03-05T19:58:03.230Z,49.30
2023-03-05T20:00:30.778Z,49.28
2023-03-05T20:02:58.292Z,49.13
2023-03-05T20:05:28.805Z,49.12
2023-03-05T20:07:56.485Z,49.05
2023-03-05T20:10:23.699Z,49.04
2023-03-05T20:12:51.336Z,48.97
2023-03-05T20:15:20.023Z,48.84
2023-03-05T20:17:48.771Z,48.81
2023-03-05T20:20:18.134Z,48.92
2023-03-05T20:22:46.657Z,48.77
2023-03-05T20:25:17.640Z,48.80
2023-03-05T20:27:45.265Z,48.91
2023-03-05T20:30:14.930Z,48.55
2023-03-05T20:32:42.209Z,48.56
2023-03-05T20:35:16.936Z,48.57
2023-03-05T20:37:49.868Z,48.58
2023-03-05T20:40:17.954Z,48.37
2023-03-05T20:42:47.551Z,48.50
2023-03-05T20:46:10.958Z,48.38
2023-03-05T20:48:38.418Z,48.43
2023-03-05T20:51:14.437Z,48.48
2023-03-05T20:53:42.905Z,48.62
2023-03-05T20:56:10.351Z,48.27
2023-03-05T20:58:38.909Z,48.43
2023-03-05T21:01:07.984Z,48.59
2023-03-05T21:03:37.929Z,48.53
2023-03-05T21:09:37.468Z,48.47
2023-03-05T21:12:23.321Z,48.55
2023-03-05T21:14:50.347Z,48.60
2023-03-05T21:17:18.565Z,48.55
2023-03-05T21:19:45.524Z,48.45
2023-03-05T21:22:12.780Z,48.59
2023-03-05T21:24:54.904Z,48.62
2023-03-05T21:27:22.544Z,49.19
2023-03-05T21:29:51.013Z,48.85
2023-03-05T21:32:21.583Z,48.86
2023-03-05T21:35:07.253Z,48.75
2023-03-05T21:38:13.013Z,48.81
2023-03-05T21:40:46.188Z,49.03
2023-03-05T21:43:17.499Z,48.96
2023-03-05T21:45:47.510Z,48.86
2023-03-05T21:48:15.499Z,48.70
2023-03-05T21:50:45.750Z,48.85
2023-03-05T21:53:14.210Z,48.74
2023-03-05T21:56:00.472Z,49.01
2023-03-05T21:58:27.545Z,48.96
2023-03-05T22:00:54.905Z,48.98
2023-03-05T22:03:22.071Z,49.03
2023-03-05T22:06:38.815Z,48.99
2023-03-05T22:09:05.842Z,49.07
2023-03-05T22:11:33.019Z,48.27
2023-03-05T22:14:00.041Z,48.77
2023-03-05T22:16:28.569Z,48.68
2023-03-05T22:18:55.799Z,48.82
2023-03-05T22:21:27.352Z,48.86
2023-03-05T22:23:58.444Z,48.98
2023-03-05T22:26:27.060Z,48.66
2023-03-05T22:28:54.202Z,48.93
2023-03-05T22:31:28.840Z,49.11
2023-03-05T22:33:56.371Z,49.01
2023-03-05T22:36:24.784Z,49.03
2023-03-05T22:38:52.085Z,49.33
2023-03-05T22:41:20.462Z,49.06
2023-03-05T22:43:51.145Z,49.29
2023-03-05T22:46:21.299Z,49.34
2023-03-05T22:48:48.629Z,49.43
2023-03-05T22:51:17.137Z,49.31
2023-03-05T22:53:45.509Z,49.42
2023-03-05T22:56:15.945Z,49.44
2023-03-05T22:58:43.921Z,49.57
2023-03-05T23:01:13.719Z,49.56
2023-03-05T23:03:42.540Z,49.55
2023-03-05T23:06:10.552Z,49.70
2023-03-05T23:08:37.729Z,49.75
2023-03-05T23:11:11.005Z,49.90
2023-03-05T23:13:38.771Z,49.82
2023-03-05T23:16:06.358Z,49.90
2023-03-05T23:18:34.028Z,49.95
2023-03-05T23:21:01.113Z,49.96
2023-03-05T23:23:28.013Z,49.86
2023-03-05T23:25:55.025Z,50.00
2023-03-05T23:28:21.975Z,50.03
2023-03-05T23:30:48.908Z,50.15
2023-03-05T23:33:18.601Z,50.08
2023-03-05T23:36:00.615Z,50.30
2023-03-05T23:38:29.654Z,50.28
2023-03-05T23:41:01.141Z,50.30
2023-03-05T23:43:28.448Z,50.29
2023-03-05T23:45:55.375Z,50.17
2023-03-05T23:48:24.159Z,50.24
2023-03-05T23:50:51.348Z,50.39
2023-03-05T23:53:21.785Z,50.42
2023-03-05T23:55:49.566Z,50.65
2023-03-05T23:58:19.280Z,50.46
